Detall de PIREP

Printer-friendly versionPDF version

[2013/09/10 09:24:00]
Flight IATA:CT3200
Pilot Number:012
Company ICAO:CAT
Aircraft Type:B744/E
PAX:426
Departing Airport: LEPA
Destination Airport: EHAM
Alternate Airport:EHRD
Online: VATSIM
Route:GALAT UN861 FISTO UY156 ADABI UN858 VANAD UN874 VEKIN UN873 FERDI UY18 DENUT
Flight Level:F380
No Slew and time accel
No pause
Crash detect
Detect pilot in Cockpit between each 30 and 45 minutes
09:24 Zero fuel Weight: 476053 Lbs, Fuel Weight: 100196 Lbs
09:24 VATSIM:LEPA 100900Z VRB01KT 9999 FEW023 FEW028TCU 24/20 Q1020 NOSIG
09:24 VATSIM:EHAM 100855Z 31004KT 9999 -SHRA FEW027 FEW032CB 14/11 Q1012 TEMPO 5000 SHRA
09:24 VOICE CATALONIAN
09:25 Parking Brakes off
09:30 Take-off
09:30 Take off Weight: 574423 Lbs
09:30 Wind: 359º @ 001 Knots Heading: 238º
09:30 POS N39º 33´ 16´´ E002º 43´ 34´´
09:31 Gear Up: 179 Knots
09:31 Flaps:3 at 179 Knots
09:31 Flaps:2 at 203 Knots
09:31 Flaps:1 at 209 Knots
09:32 Flaps:0 at 251 Knots
09:46 Wind:292º@015 Knots Heading: 348º Ground Speed: 481 Knots Altitude 37286 ft
09:46 TOC
09:46 Fuel Weight: 86408 Lb
10:01 Wind:270º@026 Knots Heading: 348º Ground Speed: 484 Knots Altitude 38208 ft
10:16 Wind:292º@037 Knots Heading: 337º Ground Speed: 463 Knots Altitude 38234 ft
10:31 Wind:309º@053 Knots Heading: 358º Ground Speed: 457 Knots Altitude 38251 ft
10:46 Wind:304º@051 Knots Heading: 010º Ground Speed: 478 Knots Altitude 38208 ft
11:01 Wind:299º@046 Knots Heading: 019º Ground Speed: 495 Knots Altitude 38126 ft
11:08 TOD
11:08 Fuel Weight: 57978 Lb
11:16 Wind:337º@013 Knots Heading: 039º Ground Speed: 363 Knots Altitude 19763 ft
11:23 Flaps:1 at 203 Knots
11:23 Flaps:2 at 201 Knots
11:24 Flaps:3 at 195 Knots
11:26 Flaps:4 at 191 Knots
11:28 Flaps:5 at 164 Knots
11:28 Gear Down: 164 Knots
11:28 Flaps:6 at 162 Knots
11:31 Wind:310º@005 Knots Heading: 358º Ground Speed: 145 Knots Altitude 262 ft
11:31 TouchDown:Rate -235 ft/min Speed: 130 Knots
11:31 VATSIM:EHAM 101055Z 31005KT 9999 VCSH FEW025 FEW032CB 15/12 Q1012 TEMPO 7000
11:31 Land
11:31 Wind:310º@005 Knots
11:31 Heading: 005º
11:31 Flight Duration: 02:01
11:31 Landing Weight: 529406 Lbs
11:31 POS N52º 18´ 11´´ E004º 46´ 43´´
11:33 Parking brakes on
11:33 Block to Block Duration: 02:08
11:33 Final Fuel: 53044 Lbls
11:33 Spent Fuel: 47151 Lbls
11:33 Flight Length: 874 NM
11:33 TOD Land Length: 119 NM

Exportar CSV

Powered by Drupal - Modified by Danger4k